Time;durP1;ratioP1;P1;durP2;ratioP2;P2;SDS_P1;SDS_P2;PMS_P1;PMS_P2;Temp;Humidity;BMP_temperature;BMP_pressure;BME280_temperature;BME280_humidity;BME280_pressure;Samples;Min_cycle;Max_cycle;Signal;HPM_P1;HPM_P2
2024/01/10 00:00:19;;;;;;;42.28;19.70;;;-6.40;99.90;;;;;;5023214;28;20490;-65
2024/01/10 00:02:51;;;;;;;39.90;18.40;;;-6.40;99.90;;;;;;5041338;28;20041;-65
2024/01/10 00:05:24;;;;;;;34.50;15.65;;;-6.40;99.90;;;;;;5030380;28;20073;-65
2024/01/10 00:07:57;;;;;;;29.70;14.47;;;-6.40;99.90;;;;;;5048917;28;20053;-63
2024/01/10 00:10:29;;;;;;;39.97;17.93;;;-6.40;99.90;;;;;;5023719;28;20042;-65
2024/01/10 00:13:00;;;;;;;37.43;18.37;;;-6.40;99.90;;;;;;5016881;28;20087;-65
2024/01/10 00:15:28;;;;;;;40.53;19.15;;;-6.40;99.90;;;;;;5042413;28;20530;-65
2024/01/10 00:18:00;;;;;;;35.53;18.08;;;-6.40;99.90;;;;;;5039763;28;20069;-65
2024/01/10 00:20:31;;;;;;;34.47;16.98;;;-6.40;99.90;;;;;;5011600;28;20050;-65
2024/01/10 00:23:03;;;;;;;38.53;18.13;;;-6.40;99.90;;;;;;5021706;28;20061;-66
2024/01/10 00:25:30;;;;;;;40.05;19.33;;;-6.40;99.90;;;;;;5024607;28;20621;-65
2024/01/10 00:28:02;;;;;;;37.97;19.13;;;-6.40;99.90;;;;;;5040254;28;20514;-65
2024/01/10 00:30:34;;;;;;;41.10;17.75;;;-6.40;99.90;;;;;;5019661;28;20033;-65
2024/01/10 00:33:06;;;;;;;40.92;19.25;;;-6.40;99.90;;;;;;5041447;28;20125;-66
2024/01/10 00:35:33;;;;;;;32.80;17.67;;;-6.40;99.90;;;;;;5028121;28;20046;-66
2024/01/10 00:38:04;;;;;;;34.38;17.42;;;-6.40;99.90;;;;;;5018218;28;20058;-65
2024/01/10 00:40:37;;;;;;;33.95;17.40;;;-6.30;99.90;;;;;;5016908;28;20049;-66
2024/01/10 00:43:04;;;;;;;42.75;19.20;;;-6.30;99.90;;;;;;5018131;28;20132;-66
2024/01/10 00:45:36;;;;;;;40.85;19.73;;;-6.40;99.90;;;;;;5020160;28;20048;-66
2024/01/10 00:48:08;;;;;;;40.90;18.80;;;-6.40;99.90;;;;;;5027995;28;20387;-65
2024/01/10 00:50:40;;;;;;;40.17;18.07;;;-6.40;99.90;;;;;;5028428;28;20077;-65
2024/01/10 00:53:13;;;;;;;40.90;18.60;;;-6.40;99.90;;;;;;5015887;28;20069;-66
2024/01/10 00:55:44;;;;;;;47.27;19.73;;;-6.40;99.90;;;;;;5026584;28;20042;-65
2024/01/10 00:58:11;;;;;;;42.60;19.07;;;-6.40;99.90;;;;;;5022150;28;20876;-65
2024/01/10 01:00:43;;;;;;;46.27;21.83;;;-6.40;99.90;;;;;;5020475;28;20057;-65
2024/01/10 01:03:15;;;;;;;36.30;18.50;;;-6.40;99.90;;;;;;5013687;28;20052;-65
2024/01/10 01:05:47;;;;;;;36.40;17.70;;;-6.40;99.90;;;;;;5040773;28;20399;-65
2024/01/10 01:08:19;;;;;;;40.63;19.85;;;-6.30;99.90;;;;;;5040062;28;20042;-65
2024/01/10 01:10:50;;;;;;;40.78;18.95;;;-6.30;99.90;;;;;;5011789;28;20528;-65
2024/01/10 01:13:17;;;;;;;35.85;18.23;;;-6.30;99.90;;;;;;5013500;28;20461;-65
2024/01/10 01:15:44;;;;;;;33.13;17.27;;;-6.30;99.90;;;;;;5019744;28;20051;-66
2024/01/10 01:18:16;;;;;;;39.60;18.40;;;-6.20;99.90;;;;;;5023858;28;20494;-65
2024/01/10 01:20:49;;;;;;;41.20;19.42;;;-6.20;99.90;;;;;;5020713;28;20046;-65
2024/01/10 01:23:16;;;;;;;41.28;21.02;;;-6.30;99.90;;;;;;5023813;28;20044;-66
2024/01/10 01:25:48;;;;;;;39.88;19.40;;;-6.30;99.90;;;;;;5033105;28;20040;-65
2024/01/10 01:28:20;;;;;;;35.80;18.48;;;-6.30;99.90;;;;;;5019416;28;20045;-65
2024/01/10 01:30:52;;;;;;;39.28;18.52;;;-6.30;99.90;;;;;;5033661;28;20111;-65
2024/01/10 01:33:19;;;;;;;42.10;19.10;;;-6.20;99.90;;;;;;5022047;28;20486;-65
2024/01/10 01:35:46;;;;;;;40.70;17.83;;;-6.20;99.90;;;;;;5032073;28;20048;-65
2024/01/10 01:38:18;;;;;;;36.13;19.30;;;-6.20;99.90;;;;;;5016198;28;20045;-65
2024/01/10 01:40:45;;;;;;;38.88;19.23;;;-6.10;99.90;;;;;;5024479;28;20049;-65
2024/01/10 01:43:21;;;;;;;34.80;18.88;;;-6.10;99.90;;;;;;5024258;28;20080;-65
2024/01/10 01:45:55;;;;;;;38.13;20.13;;;-6.10;99.90;;;;;;5027085;28;20129;-65
2024/01/10 01:48:27;;;;;;;37.65;18.63;;;-6.10;99.90;;;;;;5043470;28;20030;-65
2024/01/10 01:51:05;;;;;;;37.78;19.00;;;-6.10;99.90;;;;;;5022541;28;20041;-66
2024/01/10 01:53:38;;;;;;;37.10;18.70;;;-6.10;99.90;;;;;;5044706;28;20104;-65
2024/01/10 01:56:11;;;;;;;28.45;14.60;;;-6.20;99.90;;;;;;5017283;28;20057;-65
2024/01/10 01:58:45;;;;;;;38.70;18.75;;;-6.20;99.90;;;;;;5021513;28;20061;-65
2024/01/10 02:01:12;;;;;;;38.53;18.02;;;-6.20;99.90;;;;;;5020880;28;20060;-66
2024/01/10 02:03:39;;;;;;;39.42;19.95;;;-6.20;99.90;;;;;;5023368;28;20092;-65
2024/01/10 02:06:12;;;;;;;42.70;19.38;;;-6.20;99.90;;;;;;5030994;28;20042;-66
2024/01/10 02:08:44;;;;;;;25.92;14.05;;;-6.20;99.90;;;;;;5022502;28;20133;-65
2024/01/10 02:11:16;;;;;;;37.37;18.53;;;-6.20;99.90;;;;;;5023615;28;20049;-66
2024/01/10 02:13:48;;;;;;;42.03;19.13;;;-6.10;99.90;;;;;;5051281;28;20022;-64
2024/01/10 02:16:24;;;;;;;42.00;20.10;;;-6.10;99.90;;;;;;5022429;28;20141;-65
2024/01/10 02:18:51;;;;;;;44.50;19.95;;;-6.10;99.90;;;;;;5015100;28;20407;-65
2024/01/10 02:21:23;;;;;;;37.15;20.10;;;-6.00;99.90;;;;;;5030105;28;20073;-65
2024/01/10 02:23:50;;;;;;;37.08;18.80;;;-6.00;99.90;;;;;;5017505;28;20402;-65
2024/01/10 02:26:22;;;;;;;40.53;19.88;;;-6.00;99.90;;;;;;5019382;28;20048;-65
2024/01/10 02:28:54;;;;;;;47.95;21.10;;;-5.90;99.90;;;;;;5021491;28;20088;-65
2024/01/10 02:31:21;;;;;;;39.83;20.17;;;-5.90;99.90;;;;;;5025827;28;20117;-65
2024/01/10 02:33:52;;;;;;;39.13;19.73;;;-5.90;99.90;;;;;;5043886;28;20033;-65
2024/01/10 02:36:24;;;;;;;41.80;21.20;;;-5.90;99.90;;;;;;5028972;28;20038;-65
2024/01/10 02:38:56;;;;;;;40.50;19.98;;;-6.00;99.90;;;;;;5019221;28;20045;-65
2024/01/10 02:41:29;;;;;;;37.27;19.80;;;-5.90;99.90;;;;;;5029965;28;20068;-65
2024/01/10 02:44:00;;;;;;;40.67;21.40;;;-5.90;99.90;;;;;;5023578;28;20046;-65
2024/01/10 02:46:33;;;;;;;40.13;18.83;;;-5.90;99.90;;;;;;5025529;28;20056;-65
2024/01/10 02:49:00;;;;;;;40.80;20.00;;;-5.90;99.90;;;;;;5020204;28;20056;-65
2024/01/10 02:51:32;;;;;;;42.60;20.23;;;-5.90;99.90;;;;;;5041618;28;20093;-65
2024/01/10 02:53:58;;;;;;;41.40;20.40;;;-5.80;99.90;;;;;;5021960;28;20044;-65
2024/01/10 02:56:30;;;;;;;45.10;21.38;;;-5.80;99.90;;;;;;5013293;28;20041;-65
2024/01/10 02:59:02;;;;;;;41.60;20.45;;;-5.80;99.90;;;;;;5015619;28;20045;-65
2024/01/10 03:01:34;;;;;;;39.75;19.48;;;-5.80;99.90;;;;;;5021493;28;20069;-65
2024/01/10 03:04:00;;;;;;;46.93;20.73;;;-5.70;99.90;;;;;;5028255;28;20037;-65
2024/01/10 03:06:27;;;;;;;38.58;19.35;;;-5.70;99.90;;;;;;5025829;28;20510;-65
2024/01/10 03:08:59;;;;;;;34.20;19.20;;;-5.70;99.90;;;;;;5025903;28;20045;-65
2024/01/10 03:11:26;;;;;;;44.67;21.45;;;-5.70;99.90;;;;;;5014056;28;20042;-65
2024/01/10 03:14:09;;;;;;;41.30;19.15;;;-5.70;99.90;;;;;;5017227;28;20037;-65
2024/01/10 03:16:41;;;;;;;45.60;20.95;;;-5.70;99.90;;;;;;5024676;28;20072;-65
2024/01/10 03:19:13;;;;;;;43.88;20.10;;;-5.70;99.90;;;;;;5027828;28;20068;-65
2024/01/10 03:21:45;;;;;;;40.88;20.15;;;-5.60;99.90;;;;;;5026223;28;20525;-65
2024/01/10 03:24:16;;;;;;;40.92;21.35;;;-5.60;99.90;;;;;;5029560;28;20413;-66
2024/01/10 03:26:48;;;;;;;40.45;20.75;;;-5.60;99.90;;;;;;5037609;28;20053;-65
2024/01/10 03:29:20;;;;;;;40.90;19.08;;;-5.60;99.90;;;;;;5022637;28;20121;-65
2024/01/10 03:31:52;;;;;;;42.72;19.90;;;-5.60;99.90;;;;;;5039387;28;20057;-65
2024/01/10 03:34:24;;;;;;;40.78;19.60;;;-5.70;99.90;;;;;;5018214;28;20140;-65
2024/01/10 03:36:56;;;;;;;40.92;20.45;;;-5.70;99.90;;;;;;5030944;28;20038;-65
2024/01/10 03:39:27;;;;;;;45.60;20.67;;;-5.70;99.90;;;;;;5030603;28;20042;-65
2024/01/10 03:41:54;;;;;;;39.17;20.40;;;-5.80;99.90;;;;;;5029418;28;20053;-65
2024/01/10 03:44:29;;;;;;;43.03;22.17;;;-5.70;99.90;;;;;;5020983;28;20050;-65
2024/01/10 03:47:01;;;;;;;43.22;22.38;;;-5.70;99.90;;;;;;5022793;28;20048;-65
2024/01/10 03:49:33;;;;;;;41.25;20.75;;;-5.70;99.90;;;;;;5021654;28;20527;-65
2024/01/10 03:51:59;;;;;;;42.50;20.58;;;-5.70;99.90;;;;;;5037936;28;20703;-65
2024/01/10 03:54:31;;;;;;;39.90;20.30;;;-5.70;99.90;;;;;;5023387;28;20427;-65
2024/01/10 03:57:05;;;;;;;35.85;18.63;;;-5.60;99.90;;;;;;5012436;28;20391;-67
2024/01/10 03:59:37;;;;;;;;;;;-5.60;99.90;;;;;;5020925;28;20046;-65
2024/01/10 04:02:04;;;;;;;32.90;17.15;;;-5.50;99.90;;;;;;5023993;28;20019;-65
2024/01/10 04:04:31;;;;;;;38.10;17.90;;;-5.50;99.90;;;;;;5025607;28;20057;-65
2024/01/10 04:06:58;;;;;;;38.05;18.15;;;-5.50;99.90;;;;;;5023313;28;20451;-65
2024/01/10 04:09:30;;;;;;;38.85;19.73;;;-5.50;99.90;;;;;;5024717;28;20049;-65
2024/01/10 04:12:02;;;;;;;39.92;19.70;;;-5.50;99.90;;;;;;5026853;28;20046;-65
2024/01/10 04:14:34;;;;;;;36.33;17.80;;;-5.40;99.90;;;;;;5022941;28;20057;-65
2024/01/10 04:17:06;;;;;;;38.60;18.58;;;-5.40;99.90;;;;;;5024484;28;20041;-65
2024/01/10 04:19:33;;;;;;;40.65;18.80;;;-5.40;99.90;;;;;;5045746;28;20065;-65
2024/01/10 04:22:05;;;;;;;37.05;17.90;;;-5.40;99.90;;;;;;5037821;28;20046;-65
2024/01/10 04:24:32;;;;;;;41.53;19.63;;;-5.40;99.90;;;;;;5042367;28;20034;-65
2024/01/10 04:27:04;;;;;;;44.67;20.65;;;-5.40;99.90;;;;;;5013920;28;20044;-65
2024/01/10 04:29:31;;;;;;;36.33;18.17;;;-5.40;99.90;;;;;;5013674;28;20046;-66
2024/01/10 04:32:04;;;;;;;37.22;18.55;;;-5.40;99.90;;;;;;5026859;28;20784;-64
2024/01/10 04:34:30;;;;;;;44.97;21.23;;;-5.50;99.90;;;;;;5026864;28;20046;-65
2024/01/10 04:37:02;;;;;;;40.90;19.15;;;-5.50;99.90;;;;;;5027544;28;20089;-65
2024/01/10 04:39:35;;;;;;;38.83;18.80;;;-5.50;99.90;;;;;;5033929;28;20048;-65
2024/01/10 04:42:07;;;;;;;41.05;20.88;;;-5.50;99.90;;;;;;5019641;28;20037;-65
2024/01/10 04:44:40;;;;;;;39.72;19.15;;;-5.50;99.90;;;;;;5026465;28;20034;-65
2024/01/10 04:47:07;;;;;;;42.10;19.98;;;-5.50;99.90;;;;;;5021584;28;20121;-65
2024/01/10 04:49:39;;;;;;;37.97;18.67;;;-5.50;99.90;;;;;;5017819;28;20120;-65
2024/01/10 04:52:06;;;;;;;41.38;19.33;;;-5.50;99.90;;;;;;5029284;28;20038;-65
2024/01/10 04:54:38;;;;;;;41.65;19.63;;;-5.40;99.90;;;;;;5027460;28;20061;-65
2024/01/10 04:57:10;;;;;;;38.38;19.88;;;-5.40;99.90;;;;;;5029330;28;20041;-65
2024/01/10 04:59:42;;;;;;;48.78;20.88;;;-5.40;99.90;;;;;;5029514;28;20045;-65
2024/01/10 05:02:14;;;;;;;40.20;19.38;;;-5.40;99.90;;;;;;5023356;28;20037;-65
2024/01/10 05:04:41;;;;;;;42.07;19.87;;;-5.30;99.90;;;;;;5016955;28;20044;-65
2024/01/10 05:07:08;;;;;;;43.45;20.65;;;-5.30;99.90;;;;;;5019224;28;20088;-66
2024/01/10 05:09:40;;;;;;;42.22;20.63;;;-5.30;99.90;;;;;;5034951;28;20121;-64
2024/01/10 05:12:07;;;;;;;41.83;20.08;;;-5.30;99.90;;;;;;5022244;28;20042;-64
2024/01/10 05:14:39;;;;;;;39.85;19.70;;;-5.30;99.90;;;;;;5038157;28;20426;-65
2024/01/10 05:17:11;;;;;;;42.75;20.15;;;-5.30;99.90;;;;;;5026113;28;20041;-65
2024/01/10 05:19:42;;;;;;;46.03;21.85;;;-5.20;99.90;;;;;;5014730;28;20042;-65
2024/01/10 05:22:14;;;;;;;44.22;20.27;;;-5.20;99.90;;;;;;5014920;28;20048;-65
2024/01/10 05:24:46;;;;;;;43.90;20.10;;;-5.20;99.90;;;;;;5014869;28;20041;-65
2024/01/10 05:27:13;;;;;;;38.97;18.92;;;-5.30;99.90;;;;;;5017955;28;20044;-65
2024/01/10 05:29:47;;;;;;;41.47;18.58;;;-5.20;99.90;;;;;;5025379;28;20042;-64
2024/01/10 05:32:18;;;;;;;43.33;20.65;;;-5.20;99.90;;;;;;5033130;28;20053;-65
2024/01/10 05:34:50;;;;;;;44.42;21.60;;;-5.20;99.90;;;;;;5023528;28;20608;-65
2024/01/10 05:37:23;;;;;;;46.40;20.40;;;-5.20;99.90;;;;;;5020050;28;20065;-65
2024/01/10 05:39:50;;;;;;;42.75;21.88;;;-5.20;99.90;;;;;;5028121;28;20048;-65
2024/01/10 05:42:21;;;;;;;40.70;21.38;;;-5.20;99.90;;;;;;5019109;28;20403;-65
2024/01/10 05:44:54;;;;;;;44.25;22.15;;;-5.20;99.90;;;;;;5027480;28;20041;-64
2024/01/10 05:47:26;;;;;;;43.88;20.73;;;-5.20;99.90;;;;;;5020511;28;20038;-65
2024/01/10 05:49:53;;;;;;;39.40;20.27;;;-5.20;99.90;;;;;;5017156;28;20042;-65
2024/01/10 05:52:25;;;;;;;41.72;20.05;;;-5.10;99.90;;;;;;5017488;28;20037;-64
2024/01/10 05:54:57;;;;;;;48.00;22.92;;;-5.10;99.90;;;;;;5022554;28;20033;-65
2024/01/10 05:57:30;;;;;;;49.83;21.52;;;-5.00;99.90;;;;;;5026807;28;20096;-65
2024/01/10 05:59:57;;;;;;;45.53;22.90;;;-5.00;99.90;;;;;;5027792;28;20394;-65
2024/01/10 06:02:31;;;;;;;48.70;21.05;;;-5.00;99.90;;;;;;5024057;28;20616;-65
2024/01/10 06:04:59;;;;;;;47.45;21.50;;;-4.90;99.90;;;;;;5027982;28;20042;-65
2024/01/10 06:07:34;;;;;;;48.65;22.75;;;-5.00;99.90;;;;;;5032163;28;20065;-65
2024/01/10 06:10:06;;;;;;;42.90;21.67;;;-5.00;99.90;;;;;;5032627;28;20473;-65
2024/01/10 06:12:38;;;;;;;38.03;17.27;;;-4.90;99.90;;;;;;5030865;28;20160;-65
2024/01/10 06:15:10;;;;;;;46.65;22.30;;;-4.90;99.90;;;;;;5027370;28;20801;-65
2024/01/10 06:17:43;;;;;;;48.13;22.90;;;-4.80;99.90;;;;;;5027142;28;20538;-64
2024/01/10 06:20:15;;;;;;;44.75;21.50;;;-4.90;99.90;;;;;;5021364;28;20421;-65
2024/01/10 06:22:42;;;;;;;48.15;24.65;;;-4.80;99.90;;;;;;5014047;28;20048;-65
2024/01/10 06:25:13;;;;;;;48.63;23.10;;;-4.80;99.90;;;;;;5043548;28;20025;-64
2024/01/10 06:27:45;;;;;;;49.42;22.80;;;-4.80;99.90;;;;;;5040123;28;20056;-64
2024/01/10 06:30:17;;;;;;;42.80;22.75;;;-4.80;99.90;;;;;;5029213;28;20049;-65
2024/01/10 06:32:49;;;;;;;45.33;21.70;;;-4.80;99.90;;;;;;5030003;28;20052;-64
2024/01/10 06:35:21;;;;;;;51.00;26.00;;;-4.80;99.90;;;;;;5027340;28;20132;-65
2024/01/10 06:37:48;;;;;;;46.53;22.85;;;-4.80;99.90;;;;;;5022864;28;20041;-65
2024/01/10 06:40:21;;;;;;;47.70;22.98;;;-4.80;99.90;;;;;;5026935;28;20042;-65
2024/01/10 06:42:53;;;;;;;49.20;22.45;;;-4.80;99.90;;;;;;5022957;28;20033;-65
2024/01/10 06:45:26;;;;;;;48.90;22.73;;;-4.80;99.90;;;;;;5029060;28;20057;-64
2024/01/10 06:47:52;;;;;;;43.05;20.20;;;-4.80;99.90;;;;;;5023733;28;20121;-64
2024/01/10 06:50:21;;;;;;;49.08;22.63;;;-4.80;99.90;;;;;;5036128;28;20049;-65
2024/01/10 06:52:53;;;;;;;48.08;22.63;;;-4.80;99.90;;;;;;5026694;28;20053;-65
2024/01/10 06:55:25;;;;;;;50.75;22.73;;;-4.70;99.90;;;;;;5031301;28;20065;-65
2024/01/10 06:57:52;;;;;;;48.08;21.40;;;-4.80;99.90;;;;;;5027859;28;20499;-65
2024/01/10 07:00:26;;;;;;;47.40;21.02;;;-4.80;99.90;;;;;;5023587;28;20068;-65
2024/01/10 07:03:02;;;;;;;52.30;22.60;;;-4.80;99.90;;;;;;5026619;28;20049;-66
2024/01/10 07:05:34;;;;;;;50.03;22.95;;;-4.80;99.90;;;;;;5028713;28;20045;-65
2024/01/10 07:08:09;;;;;;;48.90;21.48;;;-4.80;99.90;;;;;;5027294;28;20041;-65
2024/01/10 07:10:41;;;;;;;48.20;22.30;;;-4.80;99.90;;;;;;5021440;28;20040;-65
2024/01/10 07:13:13;;;;;;;49.20;21.35;;;-4.70;99.90;;;;;;5015583;28;20034;-65
2024/01/10 07:15:44;;;;;;;48.53;22.48;;;-4.70;99.90;;;;;;5034899;28;20056;-65
2024/01/10 07:18:17;;;;;;;46.65;20.42;;;-4.70;99.90;;;;;;5025753;28;20029;-65
2024/01/10 07:20:45;;;;;;;45.03;21.23;;;-4.80;99.90;;;;;;5022243;28;20514;-65
2024/01/10 07:23:12;;;;;;;43.10;20.92;;;-4.80;99.90;;;;;;5037686;28;20128;-65
2024/01/10 07:25:39;;;;;;;51.00;23.65;;;-4.80;99.90;;;;;;5022876;28;20508;-65
2024/01/10 07:28:11;;;;;;;46.60;21.58;;;-4.80;99.90;;;;;;5028783;28;20061;-65
2024/01/10 07:30:44;;;;;;;49.60;22.10;;;-4.80;99.90;;;;;;5024464;28;20069;-65
2024/01/10 07:33:11;;;;;;;53.30;23.50;;;-4.80;99.90;;;;;;5017920;28;20042;-65
2024/01/10 07:35:43;;;;;;;47.72;24.20;;;-4.80;99.90;;;;;;5021619;28;20041;-65
2024/01/10 07:38:15;;;;;;;46.03;21.48;;;-4.80;99.90;;;;;;5025305;28;20803;-65
2024/01/10 07:40:47;;;;;;;45.95;21.58;;;-4.80;99.90;;;;;;5040754;28;20051;-65
2024/01/10 07:43:19;;;;;;;46.40;22.50;;;-4.80;99.90;;;;;;5038832;28;20046;-65
2024/01/10 07:45:52;;;;;;;49.97;20.55;;;-4.80;99.90;;;;;;5021181;28;20045;-65
2024/01/10 07:48:24;;;;;;;48.00;22.00;;;-4.80;99.90;;;;;;5018429;28;20038;-65
2024/01/10 07:50:57;;;;;;;49.20;23.65;;;-4.80;99.90;;;;;;5034730;28;20128;-65
2024/01/10 07:53:29;;;;;;;47.55;21.73;;;-4.70;99.90;;;;;;5020123;28;20045;-65
2024/01/10 07:56:01;;;;;;;50.05;23.95;;;-4.70;99.90;;;;;;5020731;28;20037;-65
2024/01/10 07:58:33;;;;;;;52.58;25.92;;;-4.70;99.90;;;;;;5015236;28;20070;-64
2024/01/10 08:01:00;;;;;;;59.00;23.60;;;-4.70;99.90;;;;;;5015905;28;20040;-63
2024/01/10 08:03:33;;;;;;;54.33;24.65;;;-4.60;99.90;;;;;;5019127;28;20046;-65
2024/01/10 08:05:59;;;;;;;50.80;23.20;;;-4.50;99.90;;;;;;5024637;28;20137;-65
2024/01/10 08:08:31;;;;;;;46.08;21.73;;;-4.50;99.90;;;;;;5016737;28;20041;-63
2024/01/10 08:11:03;;;;;;;49.85;22.77;;;-4.50;99.90;;;;;;5018498;28;20294;-65
2024/01/10 08:13:30;;;;;;;56.88;27.67;;;-4.50;99.90;;;;;;5021720;28;20048;-65
2024/01/10 08:16:03;;;;;;;50.90;23.00;;;-4.50;99.90;;;;;;5023705;28;20044;-64
2024/01/10 08:18:30;;;;;;;55.55;24.63;;;-4.50;99.90;;;;;;5023783;28;20050;-65
2024/01/10 08:20:57;;;;;;;49.85;24.67;;;-4.50;99.90;;;;;;5033933;28;20053;-65
2024/01/10 08:23:29;;;;;;;44.90;22.75;;;-4.40;99.90;;;;;;5024790;28;20045;-65
2024/01/10 08:26:00;;;;;;;45.08;21.52;;;-4.40;99.90;;;;;;5023970;28;20048;-65
2024/01/10 08:28:32;;;;;;;50.63;23.67;;;-4.30;99.90;;;;;;5026580;28;20062;-65
2024/01/10 08:31:04;;;;;;;49.03;21.65;;;-4.30;99.90;;;;;;5042869;28;20041;-64
2024/01/10 08:33:31;;;;;;;49.90;21.73;;;-4.20;99.90;;;;;;5039741;28;20585;-65
2024/01/10 08:36:02;;;;;;;47.88;23.23;;;-4.20;99.90;;;;;;5010640;28;20057;-65
2024/01/10 08:38:30;;;;;;;51.60;23.67;;;-4.20;99.90;;;;;;5011245;28;20096;-65
2024/01/10 08:40:58;;;;;;;45.58;23.02;;;-4.20;99.90;;;;;;5010985;28;20800;-65
2024/01/10 08:43:30;;;;;;;48.60;23.17;;;-4.20;99.90;;;;;;5018201;28;20040;-65
2024/01/10 08:46:02;;;;;;;49.35;20.27;;;-4.10;99.90;;;;;;5024753;28;20052;-65
2024/01/10 08:48:36;;;;;;;52.70;25.42;;;-4.10;99.90;;;;;;5024967;28;20042;-65
2024/01/10 08:51:09;;;;;;;;;;;-4.10;99.90;;;;;;5037162;28;20055;-65
2024/01/10 08:53:41;;;;;;;48.05;21.50;;;-4.00;99.90;;;;;;5027270;28;19925;-65
2024/01/10 08:56:15;;;;;;;52.42;22.65;;;-4.00;99.90;;;;;;5028649;28;20057;-65
2024/01/10 08:58:47;;;;;;;51.17;24.13;;;-3.90;99.90;;;;;;5016763;28;20049;-65
2024/01/10 09:01:19;;;;;;;50.88;23.17;;;-3.90;99.90;;;;;;5008400;28;20056;-65
2024/01/10 09:03:46;;;;;;;52.72;23.33;;;-3.80;99.90;;;;;;5023372;28;20038;-65
2024/01/10 09:06:18;;;;;;;47.30;22.50;;;-3.80;99.90;;;;;;5023437;28;20045;-65
2024/01/10 09:08:50;;;;;;;49.65;22.60;;;-3.90;99.90;;;;;;5019927;28;20118;-65
2024/01/10 09:11:22;;;;;;;47.05;21.27;;;-3.80;99.90;;;;;;5023176;28;20069;-65
2024/01/10 09:13:54;;;;;;;54.95;22.45;;;-3.80;99.90;;;;;;5033389;28;20120;-65
2024/01/10 09:16:26;;;;;;;47.88;22.75;;;-3.80;99.90;;;;;;5021365;28;20049;-65
2024/01/10 09:18:59;;;;;;;47.75;21.77;;;-3.70;99.90;;;;;;5024324;28;20129;-65
2024/01/10 09:21:32;;;;;;;90.70;36.55;;;-3.70;99.90;;;;;;5027570;28;20096;-65
2024/01/10 09:24:08;;;;;;;72.22;29.13;;;-3.70;99.90;;;;;;5012505;28;20145;-65
2024/01/10 09:26:41;;;;;;;52.70;22.98;;;-3.60;99.90;;;;;;5014484;28;20469;-65
2024/01/10 09:29:08;;;;;;;55.90;23.65;;;-3.50;99.90;;;;;;5019543;28;20486;-65
2024/01/10 09:31:40;;;;;;;51.05;24.08;;;-3.50;99.90;;;;;;5022765;28;20045;-65
2024/01/10 09:34:12;;;;;;;53.17;22.83;;;-3.40;99.90;;;;;;5023308;28;20084;-66
2024/01/10 09:36:38;;;;;;;46.38;21.35;;;-3.40;99.90;;;;;;5018698;28;20486;-65
2024/01/10 09:39:13;;;;;;;49.15;21.75;;;-3.40;99.90;;;;;;5018584;28;20133;-65
2024/01/10 09:41:50;;;;;;;47.65;22.42;;;-3.40;99.90;;;;;;5026134;28;20061;-65
2024/01/10 09:44:21;;;;;;;56.00;22.95;;;-3.40;99.90;;;;;;5028724;28;20563;-65
2024/01/10 09:46:55;;;;;;;53.40;22.20;;;-3.40;99.90;;;;;;5029902;28;20037;-65
2024/01/10 09:49:27;;;;;;;53.97;22.35;;;-3.30;99.90;;;;;;5019235;28;20046;-65
2024/01/10 09:52:02;;;;;;;50.83;22.88;;;-3.40;99.90;;;;;;5029218;28;20104;-65
2024/01/10 09:54:35;;;;;;;52.72;23.10;;;-3.40;99.90;;;;;;5021216;28;20519;-65
2024/01/10 09:57:09;;;;;;;49.47;21.42;;;-3.40;99.90;;;;;;5039283;28;20139;-65
2024/01/10 09:59:43;;;;;;;48.15;21.58;;;-3.30;99.90;;;;;;5024992;28;20041;-65
2024/01/10 10:02:17;;;;;;;56.28;23.02;;;-3.30;99.90;;;;;;5024601;28;20069;-66
2024/01/10 10:05:07;;;;;;;56.40;24.52;;;-3.20;99.90;;;;;;5030200;28;20029;-65
2024/01/10 10:07:47;;;;;;;56.75;24.25;;;-3.10;99.90;;;;;;5022910;28;20056;-65
2024/01/10 10:10:20;;;;;;;59.88;25.65;;;-3.10;99.90;;;;;;5016608;28;20049;-65
2024/01/10 10:12:52;;;;;;;130.20;40.23;;;-3.00;99.90;;;;;;5020895;28;20048;-65
2024/01/10 10:15:28;;;;;;;754.38;247.77;;;-2.90;99.90;;;;;;5032739;28;20042;-65
2024/01/10 10:17:55;;;;;;;135.25;53.53;;;-2.90;99.90;;;;;;5017726;28;20045;-65
2024/01/10 10:20:30;;;;;;;72.22;37.78;;;-2.90;99.90;;;;;;5045395;28;20137;-66
2024/01/10 10:23:10;;;;;;;59.00;25.55;;;-2.90;99.90;;;;;;5022972;28;20577;-66
2024/01/10 10:25:47;;;;;;;54.92;26.58;;;-2.90;99.90;;;;;;5024665;28;20130;-65
2024/01/10 10:28:15;;;;;;;53.58;24.15;;;-2.80;99.90;;;;;;5026610;28;20120;-66
2024/01/10 10:30:47;;;;;;;50.90;24.05;;;-2.80;99.90;;;;;;5041975;28;20036;-65
2024/01/10 10:33:14;;;;;;;64.20;26.33;;;-2.70;99.90;;;;;;5037085;28;20133;-65
2024/01/10 10:35:46;;;;;;;55.60;25.60;;;-2.60;99.90;;;;;;5052169;28;20042;-65
2024/01/10 10:38:18;;;;;;;51.80;23.48;;;-2.60;99.90;;;;;;5064565;28;20045;-66
2024/01/10 10:40:50;;;;;;;52.03;23.00;;;-2.40;99.90;;;;;;5020678;28;20049;-66
2024/01/10 10:43:22;;;;;;;49.85;23.67;;;-2.30;99.90;;;;;;5026576;28;20045;-66
2024/01/10 10:45:50;;;;;;;60.20;22.55;;;-2.30;99.90;;;;;;5035386;28;20413;-65
2024/01/10 10:48:22;;;;;;;53.42;24.55;;;-2.20;99.90;;;;;;5044948;28;20417;-66
2024/01/10 10:51:07;;;;;;;50.55;22.75;;;-2.10;99.90;;;;;;5027707;28;20038;-65
2024/01/10 10:53:42;;;;;;;64.15;25.50;;;-2.20;99.90;;;;;;5026838;28;20475;-65
2024/01/10 10:56:14;;;;;;;53.03;25.65;;;-2.10;99.90;;;;;;5036365;28;20042;-66
2024/01/10 10:58:48;;;;;;;57.22;28.02;;;-2.10;99.90;;;;;;5027481;28;20049;-66
2024/01/10 11:01:16;;;;;;;73.55;33.08;;;-2.10;99.90;;;;;;5022400;28;20514;-65
2024/01/10 11:03:49;;;;;;;58.15;27.13;;;-2.00;99.90;;;;;;5021605;28;20494;-66
2024/01/10 11:06:17;;;;;;;54.10;25.10;;;-1.90;99.90;;;;;;5015724;28;20042;-66
2024/01/10 11:08:49;;;;;;;63.53;23.25;;;-1.80;99.90;;;;;;5017932;28;20041;-66
2024/01/10 11:11:58;;;;;;;52.58;23.45;;;-1.80;99.90;;;;;;5023036;28;20041;-65
2024/01/10 11:15:03;;;;;;;49.30;22.80;;;-1.80;99.90;;;;;;5038488;28;20132;-65
2024/01/10 11:17:51;;;;;;;51.00;24.42;;;-1.80;99.90;;;;;;5025291;28;20116;-66
2024/01/10 11:20:32;;;;;;;50.08;25.35;;;-1.80;99.90;;;;;;5027625;28;20124;-65
2024/01/10 11:23:34;;;;;;;46.75;22.23;;;-1.80;99.90;;;;;;5022700;28;20417;-65
2024/01/10 11:26:08;;;;;;;49.65;22.15;;;-1.70;99.90;;;;;;5025145;28;20041;-65
2024/01/10 11:28:41;;;;;;;52.42;25.65;;;-1.70;99.90;;;;;;5019546;28;20038;-66
2024/01/10 11:31:09;;;;;;;49.80;23.83;;;-1.70;99.90;;;;;;5014381;28;20047;-65
2024/01/10 11:33:43;;;;;;;45.47;23.38;;;-1.60;99.90;;;;;;5026778;28;20050;-66
2024/01/10 11:36:17;;;;;;;60.58;25.80;;;-1.60;99.90;;;;;;5017289;28;20046;-66
2024/01/10 11:38:59;;;;;;;51.83;24.58;;;-1.50;99.90;;;;;;5020532;28;20080;-66
2024/01/10 11:41:35;;;;;;;56.47;24.45;;;-1.40;99.90;;;;;;5017409;28;20107;-66
2024/01/10 11:44:22;;;;;;;48.85;23.85;;;-1.40;99.90;;;;;;5026286;28;20038;-66
2024/01/10 11:46:52;;;;;;;48.83;23.73;;;-1.30;99.90;;;;;;5022475;28;20038;-66
2024/01/10 11:49:27;;;;;;;51.05;22.92;;;-1.20;99.90;;;;;;5029853;28;20052;-66
2024/01/10 11:52:00;;;;;;;51.42;23.92;;;-1.00;99.90;;;;;;5033091;28;20049;-65
2024/01/10 11:54:38;;;;;;;51.40;24.55;;;-0.80;99.90;;;;;;5027394;28;20049;-66
2024/01/10 11:57:17;;;;;;;48.95;23.58;;;-0.70;99.90;;;;;;5022256;28;20510;-66
2024/01/10 11:59:53;;;;;;;53.85;24.65;;;-0.60;99.90;;;;;;5028298;28;20037;-66
2024/01/10 12:02:26;;;;;;;49.28;23.17;;;-0.50;99.90;;;;;;5019614;28;20065;-66
2024/01/10 12:04:58;;;;;;;46.17;22.80;;;-0.40;99.90;;;;;;5023171;28;20046;-66
2024/01/10 12:07:30;;;;;;;47.10;22.98;;;-0.40;99.90;;;;;;5025577;28;20030;-67
2024/01/10 12:09:58;;;;;;;43.15;22.50;;;-0.40;99.90;;;;;;5025934;28;20489;-66
2024/01/10 12:12:26;;;;;;;50.92;23.40;;;-0.30;99.90;;;;;;5023894;28;20585;-66
2024/01/10 12:14:58;;;;;;;46.57;22.53;;;-0.20;99.90;;;;;;5019599;28;20117;-66
2024/01/10 12:17:30;;;;;;;48.70;22.58;;;-0.10;99.90;;;;;;5031517;28;20061;-66
2024/01/10 12:20:02;;;;;;;49.13;21.40;;;0.00;99.90;;;;;;5016736;28;20072;-66
2024/01/10 12:22:31;;;;;;;58.97;23.55;;;0.10;99.90;;;;;;5025012;28;20045;-66
2024/01/10 12:25:07;;;;;;;47.08;24.08;;;0.20;99.90;;;;;;5014795;28;20041;-67
2024/01/10 12:27:39;;;;;;;50.25;23.33;;;0.20;99.90;;;;;;5028776;28;20041;-66
2024/01/10 12:30:11;;;;;;;47.97;22.77;;;0.30;99.90;;;;;;5027127;28;20803;-66
2024/01/10 12:32:44;;;;;;;50.78;23.65;;;0.40;99.90;;;;;;5040258;28;20038;-66
2024/01/10 12:35:19;;;;;;;48.17;23.38;;;0.50;99.90;;;;;;5019832;28;20040;-66
2024/01/10 12:37:55;;;;;;;49.50;24.00;;;0.50;99.90;;;;;;5027779;28;20049;-66
2024/01/10 12:40:22;;;;;;;51.08;25.17;;;0.50;99.90;;;;;;5027564;28;20518;-67
2024/01/10 12:43:05;;;;;;;34.47;19.00;;;0.50;99.90;;;;;;5025965;28;20048;-66
2024/01/10 12:45:37;;;;;;;47.38;22.35;;;0.50;99.90;;;;;;5018694;28;20307;-67
2024/01/10 12:48:17;;;;;;;48.30;23.63;;;0.50;99.90;;;;;;5029799;28;20055;-66
2024/01/10 12:50:50;;;;;;;47.30;22.98;;;0.50;99.90;;;;;;5035995;28;20095;-66